Time;durP1;ratioP1;P1;durP2;ratioP2;P2;SDS_P1;SDS_P2;PMS_P1;PMS_P2;Temp;Humidity;BMP_temperature;BMP_pressure;BME280_temperature;BME280_humidity;BME280_pressure;Samples;Min_cycle;Max_cycle;Signal;HPM_P1;HPM_P2
2023/04/16 00:00:21;;;;;;;5.68;2.35;;;11.50;90.30;;;;;;5115893;28;20046;-74
2023/04/16 00:02:46;;;;;;;5.15;2.60;;;11.50;90.50;;;;;;5115686;28;20024;-74
2023/04/16 00:05:13;;;;;;;7.50;2.60;;;11.50;90.60;;;;;;5097625;28;20051;-74
2023/04/16 00:07:39;;;;;;;6.90;2.45;;;11.40;90.70;;;;;;5115591;28;20091;-74
2023/04/16 00:10:06;;;;;;;4.22;2.17;;;11.40;90.80;;;;;;5115551;28;20023;-74
2023/04/16 00:12:31;;;;;;;5.38;2.30;;;11.40;90.70;;;;;;5114467;28;20031;-74
2023/04/16 00:14:57;;;;;;;7.40;2.63;;;11.40;90.80;;;;;;5115411;28;20384;-74
2023/04/16 00:17:23;;;;;;;7.03;2.58;;;11.40;90.90;;;;;;5115439;28;20024;-73
2023/04/16 00:19:49;;;;;;;6.50;2.65;;;11.40;91.40;;;;;;5115342;28;20550;-74
2023/04/16 00:22:14;;;;;;;7.93;2.55;;;11.40;91.00;;;;;;5115271;28;20028;-74
2023/04/16 00:24:40;;;;;;;7.40;2.67;;;11.40;91.30;;;;;;5115235;28;20070;-74
2023/04/16 00:27:06;;;;;;;6.18;2.53;;;11.40;91.20;;;;;;5115205;28;20032;-74
2023/04/16 00:29:33;;;;;;;5.30;2.63;;;11.40;91.40;;;;;;5115177;28;20040;-73
2023/04/16 00:31:59;;;;;;;3.78;2.08;;;11.40;91.40;;;;;;5115015;28;20047;-74
2023/04/16 00:34:24;;;;;;;4.80;2.30;;;11.40;91.30;;;;;;5115001;28;20035;-74
2023/04/16 00:36:50;;;;;;;4.85;2.38;;;11.40;91.50;;;;;;5115028;28;20039;-74
2023/04/16 00:39:16;;;;;;;4.60;2.70;;;11.40;91.70;;;;;;5114953;28;20055;-74
2023/04/16 00:41:42;;;;;;;6.90;2.67;;;11.40;91.60;;;;;;5114889;28;20044;-74
2023/04/16 00:44:09;;;;;;;6.22;2.42;;;11.30;91.60;;;;;;5114887;28;20165;-74
2023/04/16 00:46:36;;;;;;;6.55;2.53;;;11.40;91.50;;;;;;5114853;28;20055;-74
2023/04/16 00:49:02;;;;;;;7.18;2.65;;;11.30;91.90;;;;;;5113785;28;20050;-74
2023/04/16 00:51:28;;;;;;;7.40;2.50;;;11.30;91.70;;;;;;5114441;28;20052;-74
2023/04/16 00:53:55;;;;;;;5.93;2.20;;;11.30;91.90;;;;;;5114630;28;20059;-74
2023/04/16 00:56:22;;;;;;;6.38;2.58;;;11.30;92.00;;;;;;5113681;28;20050;-74
2023/04/16 00:58:48;;;;;;;6.55;2.67;;;11.30;91.90;;;;;;5114629;28;20024;-74
2023/04/16 01:01:14;;;;;;;8.95;3.00;;;11.40;92.00;;;;;;5114502;28;20055;-74
2023/04/16 01:03:43;;;;;;;5.20;3.00;;;11.40;92.00;;;;;;5114279;28;20020;-74
2023/04/16 01:06:10;;;;;;;5.97;2.47;;;11.40;92.10;;;;;;5114452;28;20020;-74
2023/04/16 01:08:36;;;;;;;10.15;2.88;;;11.40;92.20;;;;;;5114550;28;20047;-74
2023/04/16 01:11:02;;;;;;;6.25;3.20;;;11.30;92.20;;;;;;5114353;28;20032;-74
2023/04/16 01:13:28;;;;;;;9.77;2.95;;;11.30;92.20;;;;;;5114231;28;20034;-74
2023/04/16 01:15:53;;;;;;;6.07;2.75;;;11.40;92.20;;;;;;5114278;28;20024;-74
2023/04/16 01:18:20;;;;;;;6.03;2.72;;;11.40;92.30;;;;;;5114387;28;20050;-74
2023/04/16 01:20:47;;;;;;;11.02;3.20;;;11.40;92.30;;;;;;5114342;28;20031;-74
2023/04/16 01:23:13;;;;;;;6.55;2.70;;;11.40;92.30;;;;;;5113121;28;20020;-74
2023/04/16 01:25:39;;;;;;;7.97;2.92;;;11.40;92.30;;;;;;5114262;28;20028;-74
2023/04/16 01:28:06;;;;;;;6.50;2.50;;;11.50;92.40;;;;;;5114054;28;20039;-74
2023/04/16 01:30:31;;;;;;;6.03;2.63;;;11.50;92.30;;;;;;5114016;28;20028;-74
2023/04/16 01:32:57;;;;;;;4.63;2.38;;;11.50;92.30;;;;;;5113914;28;20046;-74
2023/04/16 01:35:23;;;;;;;5.25;2.53;;;11.50;92.30;;;;;;5113833;28;20479;-74
2023/04/16 01:37:50;;;;;;;9.38;2.80;;;11.50;92.40;;;;;;5112886;28;20028;-74
2023/04/16 01:40:16;;;;;;;7.70;3.00;;;11.50;92.40;;;;;;5112826;28;20032;-74
2023/04/16 01:42:41;;;;;;;7.15;2.55;;;11.50;92.50;;;;;;5112895;28;20039;-73
2023/04/16 01:45:07;;;;;;;8.65;2.92;;;11.40;92.60;;;;;;5113803;28;20024;-74
2023/04/16 01:47:33;;;;;;;8.43;3.15;;;11.40;92.60;;;;;;5113717;28;20028;-74
2023/04/16 01:49:59;;;;;;;11.45;3.00;;;11.40;92.80;;;;;;5112475;28;20047;-74
2023/04/16 01:52:25;;;;;;;6.05;3.00;;;11.40;92.80;;;;;;5113668;28;20062;-74
2023/04/16 01:54:50;;;;;;;8.27;3.65;;;11.40;92.80;;;;;;5113655;28;20029;-74
2023/04/16 01:57:16;;;;;;;7.72;3.40;;;11.40;92.80;;;;;;5113634;28;20028;-74
2023/04/16 01:59:42;;;;;;;9.10;2.92;;;11.40;92.80;;;;;;5112704;28;20024;-74
2023/04/16 02:02:12;;;;;;;6.88;3.10;;;11.40;92.80;;;;;;5112597;28;20024;-74
2023/04/16 02:04:39;;;;;;;5.78;2.88;;;11.50;92.90;;;;;;5113606;28;20020;-74
2023/04/16 02:07:07;;;;;;;7.28;3.10;;;11.50;92.90;;;;;;5113549;28;20023;-74
2023/04/16 02:09:37;;;;;;;8.05;4.25;;;11.40;93.20;;;;;;5113495;28;20023;-74
2023/04/16 02:12:03;;;;;;;9.32;3.65;;;11.40;93.10;;;;;;5113555;28;20020;-74
2023/04/16 02:14:30;;;;;;;10.38;3.80;;;11.40;93.20;;;;;;5113479;28;20020;-74
2023/04/16 02:16:55;;;;;;;9.63;3.60;;;11.40;93.20;;;;;;5115421;28;20038;-74
2023/04/16 02:19:21;;;;;;;12.00;3.72;;;11.40;93.20;;;;;;5116702;28;20040;-74
2023/04/16 02:21:47;;;;;;;13.27;4.07;;;11.40;93.20;;;;;;5117618;28;20027;-74
2023/04/16 02:24:13;;;;;;;8.85;3.80;;;11.40;93.20;;;;;;5117563;28;20035;-74
2023/04/16 02:26:39;;;;;;;9.43;3.80;;;11.40;93.20;;;;;;5117545;28;20032;-74
2023/04/16 02:29:05;;;;;;;11.40;4.75;;;11.40;93.30;;;;;;5117504;28;20095;-74
2023/04/16 02:31:30;;;;;;;14.43;4.95;;;11.40;93.40;;;;;;5117450;28;20062;-74
2023/04/16 02:33:56;;;;;;;13.00;4.95;;;11.40;93.40;;;;;;5117256;28;20043;-74
2023/04/16 02:36:22;;;;;;;14.75;5.00;;;11.40;93.60;;;;;;5117370;28;20114;-74
2023/04/16 02:38:48;;;;;;;12.05;5.53;;;11.40;93.60;;;;;;5117329;28;20020;-74
2023/04/16 02:41:14;;;;;;;12.50;5.18;;;11.40;93.60;;;;;;5117257;28;20020;-74
2023/04/16 02:43:39;;;;;;;16.92;5.80;;;11.40;93.60;;;;;;5117224;28;20032;-74
2023/04/16 02:46:05;;;;;;;15.88;5.30;;;11.40;93.60;;;;;;5117185;28;20111;-74
2023/04/16 02:48:31;;;;;;;16.02;5.55;;;11.40;93.70;;;;;;5117153;28;20080;-74
2023/04/16 02:50:57;;;;;;;15.65;5.32;;;11.40;93.60;;;;;;5116891;28;20048;-74
2023/04/16 02:53:22;;;;;;;14.40;5.10;;;11.40;93.70;;;;;;5116967;28;20039;-74
2023/04/16 02:55:51;;;;;;;13.50;4.88;;;11.40;93.70;;;;;;5115962;28;20086;-74
2023/04/16 02:58:17;;;;;;;17.00;5.30;;;11.40;93.70;;;;;;5116954;28;20020;-74
2023/04/16 03:00:43;;;;;;;18.00;6.15;;;11.40;93.70;;;;;;5116884;28;20049;-74
2023/04/16 03:03:09;;;;;;;16.80;6.53;;;11.40;93.80;;;;;;5116807;28;20028;-74
2023/04/16 03:05:34;;;;;;;18.45;6.03;;;11.40;93.80;;;;;;5116805;28;20028;-74
2023/04/16 03:08:00;;;;;;;12.02;4.85;;;11.40;93.90;;;;;;5116734;28;20551;-74
2023/04/16 03:10:26;;;;;;;18.33;6.13;;;11.40;93.80;;;;;;5116693;28;20055;-74
2023/04/16 03:12:51;;;;;;;13.70;5.82;;;11.40;93.80;;;;;;5116595;28;20092;-74
2023/04/16 03:15:17;;;;;;;15.65;6.05;;;11.40;93.80;;;;;;5116621;28;20046;-74
2023/04/16 03:17:43;;;;;;;15.80;5.75;;;11.40;93.80;;;;;;5116578;28;20039;-74
2023/04/16 03:20:09;;;;;;;13.45;5.72;;;11.50;93.80;;;;;;5116525;28;20104;-74
2023/04/16 03:22:34;;;;;;;15.20;6.10;;;11.50;93.80;;;;;;5116520;28;20035;-74
2023/04/16 03:25:00;;;;;;;15.27;5.50;;;11.40;93.90;;;;;;5116402;28;20028;-74
2023/04/16 03:27:26;;;;;;;18.50;6.25;;;11.40;93.90;;;;;;5116085;28;20028;-74
2023/04/16 03:29:51;;;;;;;16.23;5.65;;;11.40;93.90;;;;;;5116332;28;20500;-74
2023/04/16 03:32:17;;;;;;;15.50;5.80;;;11.40;93.90;;;;;;5116197;28;20041;-74
2023/04/16 03:34:43;;;;;;;15.25;5.65;;;11.40;94.00;;;;;;5115229;28;20088;-74
2023/04/16 03:37:10;;;;;;;18.10;6.53;;;11.40;94.00;;;;;;5098254;28;20024;-74
2023/04/16 03:39:36;;;;;;;18.98;6.10;;;11.40;94.10;;;;;;5116170;28;20030;-74
2023/04/16 03:42:02;;;;;;;16.70;5.82;;;11.40;94.30;;;;;;5116109;28;20032;-74
2023/04/16 03:44:28;;;;;;;18.13;6.15;;;11.30;94.40;;;;;;5116053;28;20032;-74
2023/04/16 03:46:54;;;;;;;17.90;6.25;;;11.30;94.30;;;;;;5116037;28;20020;-74
2023/04/16 03:49:19;;;;;;;13.93;5.32;;;11.30;94.30;;;;;;5114942;28;20115;-73
2023/04/16 03:51:45;;;;;;;17.95;6.75;;;11.30;94.40;;;;;;5115786;28;20044;-74
2023/04/16 03:54:11;;;;;;;17.02;6.22;;;11.20;94.40;;;;;;5114871;28;20039;-74
2023/04/16 03:56:38;;;;;;;22.27;6.30;;;11.30;94.40;;;;;;5115830;28;20027;-74
2023/04/16 03:59:04;;;;;;;21.25;7.00;;;11.30;94.40;;;;;;5115769;28;20023;-74
2023/04/16 04:01:30;;;;;;;18.38;7.00;;;11.30;94.40;;;;;;5115751;28;20017;-74
2023/04/16 04:03:55;;;;;;;18.48;7.57;;;11.30;94.40;;;;;;5115674;28;20036;-74
2023/04/16 04:06:21;;;;;;;18.73;7.35;;;11.30;94.40;;;;;;5115620;28;20028;-74
2023/04/16 04:08:46;;;;;;;18.10;5.80;;;11.30;94.40;;;;;;5115576;28;20038;-74
2023/04/16 04:11:12;;;;;;;19.85;6.57;;;11.30;94.40;;;;;;5115506;28;20039;-74
2023/04/16 04:13:37;;;;;;;16.35;6.53;;;11.30;94.40;;;;;;5115544;28;20039;-74
2023/04/16 04:16:04;;;;;;;17.50;7.43;;;11.30;94.70;;;;;;5115429;28;20032;-74
2023/04/16 04:18:29;;;;;;;16.70;7.65;;;11.20;94.60;;;;;;5115409;28;20045;-74
2023/04/16 04:20:56;;;;;;;18.27;7.03;;;11.30;94.60;;;;;;5115323;28;20032;-74
2023/04/16 04:23:21;;;;;;;19.65;7.22;;;11.20;94.60;;;;;;5115315;28;20028;-74
2023/04/16 04:25:47;;;;;;;17.15;6.50;;;11.20;94.50;;;;;;5115221;28;20035;-74
2023/04/16 04:28:12;;;;;;;18.42;7.15;;;11.30;94.60;;;;;;5097302;28;20036;-74
2023/04/16 04:30:38;;;;;;;19.35;6.57;;;11.20;94.80;;;;;;5115146;28;20042;-74
2023/04/16 04:33:04;;;;;;;18.77;7.18;;;11.30;94.60;;;;;;5114953;28;20036;-74
2023/04/16 04:35:30;;;;;;;18.90;6.88;;;11.20;94.70;;;;;;5115085;28;20035;-74
2023/04/16 04:37:55;;;;;;;18.63;6.90;;;11.20;94.70;;;;;;5115062;28;20084;-74
2023/04/16 04:40:21;;;;;;;17.13;6.47;;;11.20;94.70;;;;;;5114239;28;20033;-74
2023/04/16 04:42:46;;;;;;;20.55;6.80;;;11.20;94.80;;;;;;5114901;28;20020;-74
2023/04/16 04:45:12;;;;;;;18.70;6.63;;;11.20;94.80;;;;;;5114879;28;20036;-74
2023/04/16 04:47:38;;;;;;;20.00;7.38;;;11.20;94.80;;;;;;5114871;28;20032;-74
2023/04/16 04:50:04;;;;;;;21.10;6.78;;;11.20;94.90;;;;;;5114558;28;20051;-74
2023/04/16 04:52:30;;;;;;;19.48;6.78;;;11.20;94.90;;;;;;5114707;28;20061;-74
2023/04/16 04:54:55;;;;;;;17.95;7.22;;;11.20;94.90;;;;;;5114703;28;20043;-74
2023/04/16 04:57:21;;;;;;;21.55;8.38;;;11.20;95.10;;;;;;5114633;28;20020;-74
2023/04/16 04:59:47;;;;;;;18.45;7.68;;;11.20;95.00;;;;;;5114583;28;20059;-74
2023/04/16 05:02:12;;;;;;;22.48;8.82;;;11.10;95.10;;;;;;5114535;28;20027;-74
2023/04/16 05:04:38;;;;;;;18.95;8.15;;;11.10;95.40;;;;;;5114492;28;20020;-74
2023/04/16 05:07:04;;;;;;;23.73;7.50;;;11.20;95.20;;;;;;5114427;28;20140;-74
2023/04/16 05:09:29;;;;;;;19.02;8.10;;;11.20;95.20;;;;;;5114379;28;20051;-74
2023/04/16 05:11:56;;;;;;;20.55;8.55;;;11.10;95.30;;;;;;5114417;28;20170;-74
2023/04/16 05:14:22;;;;;;;21.20;8.27;;;11.10;95.20;;;;;;5114433;28;20036;-74
2023/04/16 05:16:47;;;;;;;25.15;8.40;;;11.10;95.30;;;;;;5114266;28;20492;-74
2023/04/16 05:19:13;;;;;;;19.92;8.15;;;11.10;95.40;;;;;;5114230;28;20028;-74
2023/04/16 05:21:39;;;;;;;20.77;8.32;;;11.10;95.30;;;;;;5114156;28;20035;-74
2023/04/16 05:24:06;;;;;;;18.67;8.98;;;11.10;95.40;;;;;;5114182;28;20035;-74
2023/04/16 05:26:31;;;;;;;23.15;8.68;;;11.20;95.40;;;;;;5114112;28;20031;-74
2023/04/16 05:28:57;;;;;;;22.58;8.63;;;11.20;95.40;;;;;;5114062;28;20028;-74
2023/04/16 05:31:22;;;;;;;24.60;9.45;;;11.20;95.50;;;;;;5113949;28;20032;-74
2023/04/16 05:33:48;;;;;;;21.30;8.95;;;11.10;95.50;;;;;;5113811;28;20081;-75
2023/04/16 05:36:14;;;;;;;23.67;8.57;;;11.10;95.50;;;;;;5113915;28;20024;-74
2023/04/16 05:38:39;;;;;;;24.60;9.20;;;11.10;95.40;;;;;;5112881;28;20063;-74
2023/04/16 05:41:05;;;;;;;25.08;8.70;;;11.10;95.50;;;;;;5113995;28;20044;-74
2023/04/16 05:43:30;;;;;;;26.83;9.65;;;11.10;95.50;;;;;;5113993;28;20028;-74
2023/04/16 05:45:56;;;;;;;28.17;9.68;;;11.10;95.60;;;;;;5113940;28;20028;-74
2023/04/16 05:48:22;;;;;;;27.17;9.35;;;11.10;95.70;;;;;;5113731;28;20035;-74
2023/04/16 05:50:48;;;;;;;24.77;9.45;;;11.10;95.70;;;;;;5113534;28;20055;-74
2023/04/16 05:53:14;;;;;;;23.65;9.95;;;11.10;95.60;;;;;;5113611;28;20054;-74
2023/04/16 05:55:39;;;;;;;22.73;8.18;;;11.10;95.70;;;;;;5113684;28;20050;-74
2023/04/16 05:58:05;;;;;;;25.15;9.73;;;11.10;95.70;;;;;;5113639;28;20028;-74
2023/04/16 06:00:34;;;;;;;25.50;10.15;;;11.10;95.70;;;;;;5112602;28;20024;-74
2023/04/16 06:03:01;;;;;;;22.35;9.07;;;11.10;95.70;;;;;;5113537;28;20028;-74
2023/04/16 06:05:27;;;;;;;26.42;9.70;;;11.10;96.20;;;;;;5113597;28;20020;-74
2023/04/16 06:07:53;;;;;;;21.13;8.80;;;11.10;95.70;;;;;;5113531;28;20024;-74
2023/04/16 06:10:18;;;;;;;24.73;9.48;;;11.10;95.70;;;;;;5113678;28;20051;-74
2023/04/16 06:12:44;;;;;;;23.88;8.32;;;11.20;95.70;;;;;;5113386;28;20045;-74
2023/04/16 06:15:10;;;;;;;23.60;8.40;;;11.10;95.70;;;;;;5113589;28;20479;-74
2023/04/16 06:17:36;;;;;;;20.13;8.48;;;11.20;95.80;;;;;;5113488;28;20031;-74
2023/04/16 06:20:01;;;;;;;16.38;7.63;;;11.20;95.90;;;;;;5113520;28;20050;-74
2023/04/16 06:22:27;;;;;;;25.33;8.57;;;11.20;95.70;;;;;;5113408;28;20043;-74
2023/04/16 06:24:53;;;;;;;19.35;8.85;;;11.20;95.70;;;;;;5113376;28;20028;-73
2023/04/16 06:27:18;;;;;;;21.15;8.18;;;11.20;95.60;;;;;;5113349;28;20028;-74
2023/04/16 06:29:44;;;;;;;19.17;9.13;;;11.20;95.70;;;;;;5113456;28;20035;-74
2023/04/16 06:32:10;;;;;;;20.60;7.97;;;11.20;95.70;;;;;;5113374;28;20053;-73
2023/04/16 06:34:37;;;;;;;20.02;8.02;;;11.20;95.70;;;;;;5113222;28;20047;-73
2023/04/16 06:37:03;;;;;;;19.00;8.25;;;11.20;95.60;;;;;;5113431;28;20051;-74
2023/04/16 06:39:29;;;;;;;19.80;8.38;;;11.20;95.70;;;;;;5113216;28;20024;-74
2023/04/16 06:41:55;;;;;;;20.00;7.85;;;11.20;95.60;;;;;;5113219;28;20024;-73
2023/04/16 06:44:20;;;;;;;18.05;7.43;;;11.20;95.60;;;;;;5113196;28;20031;-74
2023/04/16 06:46:46;;;;;;;20.27;8.45;;;11.20;95.50;;;;;;5113282;28;20032;-74
2023/04/16 06:49:11;;;;;;;20.25;8.23;;;11.30;95.50;;;;;;5113150;28;20036;-73
2023/04/16 06:51:37;;;;;;;19.98;8.73;;;11.20;95.60;;;;;;5113003;28;20044;-74
2023/04/16 06:54:03;;;;;;;17.85;7.85;;;11.30;95.50;;;;;;5113046;28;20024;-74
2023/04/16 06:56:28;;;;;;;18.65;7.65;;;11.20;95.50;;;;;;5112215;28;20488;-74
2023/04/16 06:58:56;;;;;;;20.85;7.90;;;11.20;95.80;;;;;;5113025;28;20016;-73
2023/04/16 07:01:22;;;;;;;25.38;9.77;;;11.20;95.50;;;;;;5113038;28;20020;-74
2023/04/16 07:03:47;;;;;;;20.60;9.07;;;11.20;95.50;;;;;;5115082;28;20467;-74
2023/04/16 07:06:13;;;;;;;23.20;9.13;;;11.20;95.60;;;;;;5115807;28;20039;-74
2023/04/16 07:08:39;;;;;;;20.00;8.23;;;11.20;95.60;;;;;;5116733;28;20121;-74
2023/04/16 07:11:04;;;;;;;19.48;8.90;;;11.20;95.50;;;;;;5115696;28;20091;-74
2023/04/16 07:13:30;;;;;;;21.98;8.43;;;11.30;95.60;;;;;;5115614;28;20024;-74
2023/04/16 07:15:56;;;;;;;21.23;9.25;;;11.20;95.50;;;;;;5116661;28;20051;-74
2023/04/16 07:18:21;;;;;;;22.35;8.23;;;11.30;95.50;;;;;;5116580;28;20020;-74
2023/04/16 07:20:47;;;;;;;23.92;8.65;;;11.30;95.50;;;;;;5116533;28;20024;-74
2023/04/16 07:23:12;;;;;;;21.60;8.70;;;11.30;95.50;;;;;;5115345;28;20043;-74
2023/04/16 07:25:39;;;;;;;18.38;8.60;;;11.30;95.50;;;;;;5116340;28;20031;-74
2023/04/16 07:28:04;;;;;;;24.17;9.43;;;11.40;95.50;;;;;;5116393;28;20025;-74
2023/04/16 07:30:33;;;;;;;21.65;9.30;;;11.40;95.50;;;;;;5116375;28;20099;-74
2023/04/16 07:33:02;;;;;;;25.83;9.43;;;11.40;95.40;;;;;;5115202;28;20016;-74
2023/04/16 07:35:29;;;;;;;22.52;9.10;;;11.40;95.40;;;;;;5115238;28;20016;-73
2023/04/16 07:37:54;;;;;;;19.80;8.73;;;11.40;95.40;;;;;;5116262;28;20035;-74
2023/04/16 07:40:20;;;;;;;20.65;9.48;;;11.40;95.40;;;;;;5116270;28;20020;-74
2023/04/16 07:42:46;;;;;;;22.40;9.82;;;11.40;95.40;;;;;;5115997;28;20024;-74
2023/04/16 07:45:11;;;;;;;26.00;10.32;;;11.40;95.40;;;;;;5115116;28;20024;-74
2023/04/16 07:47:37;;;;;;;21.00;9.55;;;11.50;95.40;;;;;;5115953;28;20110;-74
2023/04/16 07:50:03;;;;;;;19.30;9.30;;;11.50;95.30;;;;;;5115730;28;20052;-74
2023/04/16 07:52:28;;;;;;;20.98;10.00;;;11.50;95.30;;;;;;5115908;28;20047;-74
2023/04/16 07:54:54;;;;;;;21.40;9.43;;;11.50;95.30;;;;;;5097999;28;20028;-74
2023/04/16 07:57:20;;;;;;;22.23;9.60;;;11.60;95.20;;;;;;5114913;28;20021;-74
2023/04/16 07:59:45;;;;;;;26.92;10.32;;;11.50;95.10;;;;;;5115751;28;20024;-74
2023/04/16 08:02:14;;;;;;;21.40;9.13;;;11.60;95.10;;;;;;5115743;28;20053;-73
2023/04/16 08:04:41;;;;;;;23.92;9.68;;;11.60;95.10;;;;;;5115698;28;20020;-74
2023/04/16 08:07:06;;;;;;;20.80;10.27;;;11.60;95.10;;;;;;5114794;28;20020;-74
2023/04/16 08:09:33;;;;;;;21.75;9.55;;;11.60;95.00;;;;;;5115619;28;20025;-74
2023/04/16 08:11:59;;;;;;;19.33;9.00;;;11.60;95.00;;;;;;5115611;28;20449;-74
2023/04/16 08:14:25;;;;;;;18.55;9.07;;;11.60;95.00;;;;;;5114290;28;20028;-74
2023/04/16 08:16:51;;;;;;;23.20;10.90;;;11.60;94.90;;;;;;5115427;28;20044;-74
2023/04/16 08:19:16;;;;;;;22.85;9.95;;;11.60;94.90;;;;;;5115405;28;20028;-73
2023/04/16 08:21:42;;;;;;;19.70;9.75;;;11.70;94.90;;;;;;5115350;28;20024;-74
2023/04/16 08:24:08;;;;;;;22.70;9.48;;;11.70;94.80;;;;;;5115341;28;20020;-74
2023/04/16 08:26:33;;;;;;;24.45;9.88;;;11.70;94.80;;;;;;5114334;28;20032;-74
2023/04/16 08:28:59;;;;;;;22.15;9.70;;;11.70;94.80;;;;;;5114191;28;20031;-74
2023/04/16 08:31:25;;;;;;;21.00;10.02;;;11.80;94.70;;;;;;5115104;28;20055;-74
2023/04/16 08:33:50;;;;;;;24.35;10.40;;;11.80;94.70;;;;;;5114887;28;20084;-74
2023/04/16 08:36:16;;;;;;;21.52;9.35;;;11.80;94.60;;;;;;5114995;28;20029;-74
2023/04/16 08:38:41;;;;;;;22.98;10.48;;;11.90;94.60;;;;;;5115020;28;20031;-74
2023/04/16 08:41:11;;;;;;;21.30;9.32;;;12.00;94.60;;;;;;5114963;28;20024;-74
2023/04/16 08:43:41;;;;;;;22.58;9.70;;;12.00;94.50;;;;;;5114107;28;20020;-74
2023/04/16 08:46:07;;;;;;;22.40;10.07;;;12.00;94.40;;;;;;5114692;28;20024;-74
2023/04/16 08:48:35;;;;;;;21.55;9.82;;;12.00;94.30;;;;;;5114840;28;20024;-74
2023/04/16 08:51:06;;;;;;;24.25;10.00;;;12.00;94.30;;;;;;5114580;28;20496;-74
2023/04/16 08:53:50;;;;;;;24.52;10.55;;;12.00;94.20;;;;;;5114689;28;20038;-74
2023/04/16 08:56:20;;;;;;;24.88;10.13;;;12.00;94.20;;;;;;5114752;28;20027;-74
2023/04/16 08:58:48;;;;;;;24.75;10.30;;;12.00;94.20;;;;;;5114749;28;20016;-74
2023/04/16 09:01:16;;;;;;;17.60;8.85;;;12.00;94.20;;;;;;5114586;28;20016;-74
2023/04/16 09:03:45;;;;;;;24.55;9.57;;;12.00;94.20;;;;;;5114466;28;20054;-74
2023/04/16 09:06:11;;;;;;;21.15;10.23;;;12.00;94.20;;;;;;5114505;28;20044;-73
2023/04/16 09:08:37;;;;;;;21.35;9.48;;;12.00;94.20;;;;;;5114444;28;20561;-74
2023/04/16 09:11:03;;;;;;;21.80;9.93;;;12.10;94.20;;;;;;5114367;28;20032;-74
2023/04/16 09:13:30;;;;;;;22.38;10.20;;;12.10;94.30;;;;;;5113341;28;20035;-74
2023/04/16 09:15:57;;;;;;;27.13;10.32;;;12.10;94.10;;;;;;5114326;28;20536;-74
2023/04/16 09:18:23;;;;;;;21.05;9.52;;;12.20;94.10;;;;;;5113177;28;20487;-74
2023/04/16 09:20:49;;;;;;;21.83;10.18;;;12.20;94.10;;;;;;5114243;28;20042;-74
2023/04/16 09:23:15;;;;;;;23.73;9.95;;;12.30;94.10;;;;;;5114301;28;20365;-74
2023/04/16 09:25:41;;;;;;;25.98;9.95;;;12.30;94.20;;;;;;5113831;28;20069;-74
2023/04/16 09:28:08;;;;;;;23.40;10.02;;;12.40;94.10;;;;;;5114172;28;20028;-73
2023/04/16 09:30:33;;;;;;;22.85;11.13;;;12.40;94.00;;;;;;5114109;28;20024;-74
2023/04/16 09:33:21;;;;;;;25.55;10.60;;;12.50;93.90;;;;;;5113986;28;20468;-74
2023/04/16 09:35:51;;;;;;;24.33;10.43;;;12.50;93.80;;;;;;5114141;28;20020;-74
2023/04/16 09:38:18;;;;;;;21.35;10.00;;;12.50;93.80;;;;;;5114143;28;20047;-74
2023/04/16 09:40:46;;;;;;;23.95;9.80;;;12.50;93.70;;;;;;5113897;28;20068;-74
2023/04/16 09:43:16;;;;;;;25.13;10.18;;;12.50;93.50;;;;;;5113847;28;20027;-74
2023/04/16 09:45:53;;;;;;;18.55;9.35;;;12.50;93.50;;;;;;5113880;28;20092;-74
2023/04/16 09:48:32;;;;;;;24.75;10.35;;;12.60;93.40;;;;;;5113862;28;20020;-74
2023/04/16 09:50:59;;;;;;;25.52;11.00;;;12.60;93.30;;;;;;5113552;28;20078;-74
2023/04/16 09:53:30;;;;;;;21.30;10.50;;;12.60;93.30;;;;;;5113662;28;20036;-74
2023/04/16 09:55:57;;;;;;;24.65;10.77;;;12.60;93.20;;;;;;5113868;28;20024;-74
2023/04/16 09:58:23;;;;;;;22.42;10.70;;;12.60;93.20;;;;;;5112653;28;20012;-74
2023/04/16 10:00:54;;;;;;;23.20;10.43;;;12.70;93.20;;;;;;5113632;28;20040;-74
2023/04/16 10:03:29;;;;;;;25.38;11.60;;;12.70;93.10;;;;;;5113658;28;20077;-74
2023/04/16 10:05:55;;;;;;;27.67;11.73;;;12.70;93.40;;;;;;5113646;28;20028;-74
2023/04/16 10:08:22;;;;;;;25.33;11.20;;;12.70;93.00;;;;;;5113659;28;20082;-74
2023/04/16 10:10:48;;;;;;;24.00;10.75;;;12.80;93.10;;;;;;5113524;28;20092;-74
2023/04/16 10:13:16;;;;;;;24.08;10.80;;;12.90;93.10;;;;;;5113367;28;20036;-74
2023/04/16 10:15:42;;;;;;;22.45;10.70;;;13.00;93.10;;;;;;5113483;28;20016;-74
2023/04/16 10:18:08;;;;;;;24.85;11.20;;;13.00;92.90;;;;;;5113449;28;20032;-74
2023/04/16 10:20:35;;;;;;;22.40;10.63;;;13.10;92.80;;;;;;5113438;28;20031;-74
2023/04/16 10:23:01;;;;;;;19.83;10.57;;;13.10;92.60;;;;;;5113442;28;20110;-74
2023/04/16 10:25:28;;;;;;;23.88;10.68;;;13.20;92.50;;;;;;5113398;28;20031;-74
2023/04/16 10:27:55;;;;;;;28.33;11.57;;;13.20;92.50;;;;;;5113383;28;20032;-74
2023/04/16 10:30:22;;;;;;;24.67;11.10;;;13.30;92.40;;;;;;5113277;28;20036;-74
2023/04/16 10:32:48;;;;;;;25.30;11.30;;;13.40;92.40;;;;;;5113188;28;20049;-74
2023/04/16 10:35:17;;;;;;;23.77;11.25;;;13.50;92.50;;;;;;5113158;28;20071;-73
2023/04/16 10:37:44;;;;;;;25.15;11.75;;;13.50;92.20;;;;;;5114780;28;20021;-74
2023/04/16 10:40:25;;;;;;;23.98;11.32;;;13.60;92.00;;;;;;5117318;28;20020;-74
2023/04/16 10:42:58;;;;;;;24.65;10.88;;;13.60;92.00;;;;;;5117414;28;20114;-74
2023/04/16 10:45:37;;;;;;;24.70;10.98;;;13.70;92.00;;;;;;5117281;28;20020;-74
2023/04/16 10:48:09;;;;;;;32.20;11.23;;;13.80;92.00;;;;;;5117229;28;20028;-74
2023/04/16 10:50:35;;;;;;;28.13;11.52;;;13.80;91.80;;;;;;5116056;28;20059;-74
2023/04/16 10:53:25;;;;;;;29.52;12.73;;;13.90;91.70;;;;;;5117004;28;20055;-74
2023/04/16 10:56:04;;;;;;;21.98;11.07;;;14.00;91.50;;;;;;5117085;28;20055;-74
2023/04/16 10:58:33;;;;;;;23.98;11.65;;;14.00;91.40;;;;;;5117012;28;20024;-74
2023/04/16 11:01:00;;;;;;;23.00;10.75;;;14.00;91.10;;;;;;5116974;28;20021;-74
2023/04/16 11:03:32;;;;;;;24.10;10.85;;;14.00;91.10;;;;;;5115972;28;20032;-74
2023/04/16 11:06:16;;;;;;;23.85;11.27;;;14.00;91.00;;;;;;5116944;28;20020;-74
2023/04/16 11:08:44;;;;;;;26.77;11.63;;;14.00;90.80;;;;;;5116773;28;20031;-74
2023/04/16 11:11:11;;;;;;;24.13;11.02;;;14.00;90.80;;;;;;5116777;28;20028;-74
2023/04/16 11:13:37;;;;;;;21.45;10.95;;;14.10;90.80;;;;;;5116676;28;20476;-74
2023/04/16 11:16:04;;;;;;;24.48;11.55;;;14.10;90.60;;;;;;5116518;28;20045;-74
2023/04/16 11:18:30;;;;;;;22.58;11.65;;;14.10;90.40;;;;;;5116709;28;20024;-73
2023/04/16 11:20:55;;;;;;;26.23;11.55;;;14.10;90.30;;;;;;5116603;28;20026;-74
2023/04/16 11:23:21;;;;;;;24.67;11.80;;;14.10;90.20;;;;;;5116526;28;20048;-74
2023/04/16 11:25:47;;;;;;;25.35;11.15;;;14.20;90.10;;;;;;5116447;28;20024;-74
2023/04/16 11:28:12;;;;;;;22.30;11.32;;;14.20;90.10;;;;;;5116424;28;20032;-74
2023/04/16 11:30:38;;;;;;;24.42;11.45;;;14.20;90.00;;;;;;5116514;28;20035;-74
2023/04/16 11:33:10;;;;;;;26.48;12.68;;;14.20;90.00;;;;;;5116164;28;20083;-74
2023/04/16 11:35:38;;;;;;;23.33;11.60;;;14.20;90.00;;;;;;5115347;28;20023;-73
2023/04/16 11:38:07;;;;;;;19.98;10.43;;;14.20;89.90;;;;;;5116277;28;20021;-74
2023/04/16 11:40:33;;;;;;;23.35;11.38;;;14.20;90.00;;;;;;5115254;28;20020;-74
2023/04/16 11:43:11;;;;;;;26.63;12.25;;;14.20;90.00;;;;;;5115232;28;20039;-74
2023/04/16 11:45:37;;;;;;;28.30;11.77;;;14.10;89.90;;;;;;5115883;28;20028;-74
2023/04/16 11:48:03;;;;;;;25.65;12.05;;;14.10;90.00;;;;;;5115990;28;20055;-74
2023/04/16 11:50:28;;;;;;;24.58;11.27;;;14.10;90.00;;;;;;5115939;28;20048;-74
2023/04/16 11:53:01;;;;;;;26.50;12.38;;;14.20;90.20;;;;;;5115974;28;20032;-74
2023/04/16 11:55:27;;;;;;;24.25;12.55;;;14.30;90.40;;;;;;5115993;28;20053;-74
2023/04/16 11:57:53;;;;;;;24.17;12.13;;;14.40;90.10;;;;;;5114945;28;20024;-74
2023/04/16 12:00:19;;;;;;;25.77;11.82;;;14.50;90.20;;;;;;5114939;28;20021;-74
2023/04/16 12:02:50;;;;;;;24.42;12.57;;;14.60;90.20;;;;;;5115730;28;20106;-73
2023/04/16 12:05:32;;;;;;;28.20;12.20;;;14.80;90.20;;;;;;5115800;28;20030;-74
2023/04/16 12:07:59;;;;;;;27.05;12.30;;;14.90;89.50;;;;;;5115728;28;20055;-74
2023/04/16 12:10:26;;;;;;;22.95;11.80;;;14.90;88.20;;;;;;5114590;28;20050;-74
2023/04/16 12:12:51;;;;;;;27.48;11.88;;;14.90;87.50;;;;;;5115480;28;20040;-74
2023/04/16 12:15:17;;;;;;;24.92;12.02;;;14.90;87.00;;;;;;5115503;28;20023;-74
2023/04/16 12:17:43;;;;;;;23.00;11.27;;;14.90;87.60;;;;;;5114521;28;20032;-74
2023/04/16 12:20:10;;;;;;;22.58;11.68;;;14.80;87.20;;;;;;5114371;28;20050;-74
2023/04/16 12:22:37;;;;;;;22.38;11.70;;;14.80;87.40;;;;;;5114232;28;20039;-74
2023/04/16 12:25:05;;;;;;;25.65;11.55;;;14.70;86.30;;;;;;5115308;28;20046;-74
2023/04/16 12:28:00;;;;;;;29.27;12.80;;;14.70;87.10;;;;;;5115296;28;20024;-74
2023/04/16 12:30:26;;;;;;;25.33;11.15;;;14.70;86.60;;;;;;5102187;28;20040;-74
2023/04/16 12:33:15;;;;;;;25.52;11.15;;;14.70;87.30;;;;;;5115060;28;20024;-74